Vanndale, Arkansas
Current Conditions -  °F | °C
As of 6:56 AM on Sunday 21 Dec 2014 (Local Time) from KM19 Reporting Station
Overcast Overcast  
Wind Chill: 39°   Ceiling: 4600
Heat Index: 39°   Visibility: 10mi
Dew Point: 35°   Wind: 3mph
Humidity: 86%   Direction: 80°E
Pressure: 30.24"   Gusts: NA
Location:  35.31°N, 90.77°W
Report Text: KM19 211256Z AUTO 08003KT 10SM OVC046 04/02 A3024 RMK AO2 T00380016 SLP241
Loading
Personal Weather Stations






























Interactive Weather Map New forecast layout! Learn more

10-Day Weather Forecast

Advertisements
Track Severe Weather on mobile